Time;durP1;ratioP1;P1;durP2;ratioP2;P2;SDS_P1;SDS_P2;PMS_P1;PMS_P2;Temp;Humidity;BMP_temperature;BMP_pressure;BME280_temperature;BME280_humidity;BME280_pressure;Samples;Min_cycle;Max_cycle;Signal;HPM_P1;HPM_P2
2022/06/01 00:01:33;;;;;;;;;;;17.10;87.20;;;;;;5093361;28;20039;-60
2022/06/01 00:03:58;;;;;;;3.00;1.77;;;17.00;87.80;;;;;;5093084;28;20278;-62
2022/06/01 00:06:26;;;;;;;5.05;2.28;;;16.90;88.60;;;;;;5093024;28;20080;-62
2022/06/01 00:08:52;;;;;;;3.05;1.70;;;16.80;88.90;;;;;;5093087;28;20028;-62
2022/06/01 00:11:17;;;;;;;2.25;1.60;;;16.80;89.00;;;;;;5092962;28;20028;-62
2022/06/01 00:13:44;;;;;;;3.25;2.05;;;16.70;89.60;;;;;;5075188;28;20032;-62
2022/06/01 00:16:09;;;;;;;;;;;16.70;90.00;;;;;;5093094;28;20508;-60
2022/06/01 00:18:36;;;;;;;4.75;1.70;;;16.60;90.30;;;;;;5074449;28;19998;-59
2022/06/01 00:21:03;;;;;;;3.90;1.70;;;16.70;90.50;;;;;;5092476;28;20021;-61
2022/06/01 00:23:30;;;;;;;3.25;1.70;;;16.80;90.30;;;;;;5096810;28;20028;-59
2022/06/01 00:25:55;;;;;;;4.03;1.83;;;16.70;90.60;;;;;;5078597;28;20027;-61
2022/06/01 00:28:21;;;;;;;3.33;1.83;;;16.60;90.90;;;;;;5097064;28;20028;-60
2022/06/01 00:30:47;;;;;;;2.80;1.75;;;16.70;91.00;;;;;;5096705;28;20092;-61
2022/06/01 00:33:13;;;;;;;4.22;1.90;;;16.60;91.20;;;;;;5096428;28;20055;-62
2022/06/01 00:35:38;;;;;;;4.32;2.00;;;16.70;91.20;;;;;;5096266;28;20028;-62
2022/06/01 00:38:04;;;;;;;4.05;1.98;;;16.60;91.50;;;;;;5095970;28;20032;-62
2022/06/01 00:40:30;;;;;;;3.05;1.98;;;16.60;91.70;;;;;;5096249;28;20402;-62
2022/06/01 00:42:59;;;;;;;2.90;1.80;;;16.50;92.00;;;;;;5096164;28;20024;-62
2022/06/01 00:45:27;;;;;;;4.75;2.00;;;16.30;92.40;;;;;;5096388;28;20055;-60
2022/06/01 00:47:53;;;;;;;2.85;2.13;;;16.30;93.00;;;;;;5095829;28;20032;-62
2022/06/01 00:50:25;;;;;;;2.95;1.85;;;16.20;93.30;;;;;;5096009;28;20035;-62
2022/06/01 00:52:58;;;;;;;4.28;1.65;;;16.10;93.80;;;;;;5096052;28;20490;-62
2022/06/01 00:55:32;;;;;;;2.50;1.77;;;16.00;94.30;;;;;;5095587;28;20036;-61
2022/06/01 00:58:03;;;;;;;4.43;2.10;;;16.00;94.90;;;;;;5096394;28;20071;-61
2022/06/01 01:00:32;;;;;;;3.80;2.45;;;15.90;95.40;;;;;;5096123;28;20021;-62
2022/06/01 01:03:04;;;;;;;5.72;1.88;;;15.90;95.80;;;;;;5095521;28;20012;-61
2022/06/01 01:05:33;;;;;;;3.45;1.95;;;15.80;96.20;;;;;;5095595;28;20031;-62
2022/06/01 01:08:00;;;;;;;3.83;2.05;;;15.70;96.60;;;;;;5095926;28;20051;-62
2022/06/01 01:10:26;;;;;;;3.33;1.83;;;15.70;96.80;;;;;;5096005;28;20051;-59
2022/06/01 01:13:02;;;;;;;3.60;2.00;;;15.70;96.90;;;;;;5095630;28;20079;-56
2022/06/01 01:15:34;;;;;;;5.32;2.67;;;15.70;97.10;;;;;;5095277;28;20032;-60
2022/06/01 01:18:06;;;;;;;4.43;2.05;;;15.70;97.40;;;;;;5095401;28;20098;-62
2022/06/01 01:20:34;;;;;;;6.55;2.10;;;15.60;97.70;;;;;;5077027;28;20026;-62
2022/06/01 01:23:05;;;;;;;3.17;1.92;;;15.60;98.20;;;;;;5095326;28;20093;-58
2022/06/01 01:25:34;;;;;;;3.72;1.88;;;15.70;98.10;;;;;;5095097;28;20020;-59
2022/06/01 01:28:01;;;;;;;3.33;1.77;;;15.60;98.20;;;;;;5095076;28;20439;-62
2022/06/01 01:30:36;;;;;;;3.58;2.03;;;15.60;98.60;;;;;;5094993;28;20127;-62
2022/06/01 01:33:25;;;;;;;2.63;1.75;;;15.50;98.90;;;;;;5094168;28;20419;-61
2022/06/01 01:35:54;;;;;;;3.05;1.80;;;15.40;99.20;;;;;;5094950;28;20039;-61
2022/06/01 01:38:43;;;;;;;2.30;1.75;;;15.40;99.30;;;;;;5095087;28;20108;-62
2022/06/01 01:41:18;;;;;;;3.83;1.83;;;15.40;99.50;;;;;;5095144;28;20478;-61
2022/06/01 01:44:22;;;;;;;2.00;1.80;;;15.30;99.50;;;;;;5095112;28;20502;-61
2022/06/01 01:46:49;;;;;;;4.05;2.03;;;15.30;99.70;;;;;;5091074;28;20043;-59
2022/06/01 01:49:26;;;;;;;2.38;1.75;;;15.30;99.60;;;;;;5095007;28;20058;-60
2022/06/01 01:51:54;;;;;;;2.88;1.48;;;15.40;99.30;;;;;;5094917;28;20024;-61
2022/06/01 01:54:35;;;;;;;3.35;2.00;;;15.40;99.20;;;;;;5094407;28;20119;-61
2022/06/01 01:57:46;;;;;;;3.10;2.10;;;15.30;99.30;;;;;;5095090;28;20053;-62
2022/06/01 02:00:25;;;;;;;4.60;2.00;;;15.30;99.40;;;;;;5012667;28;20034;-61
2022/06/01 02:03:30;;;;;;;3.63;2.15;;;15.20;99.80;;;;;;5012457;28;20065;-61
2022/06/01 02:06:14;;;;;;;3.50;2.00;;;15.20;99.90;;;;;;5012728;28;20123;-62
2022/06/01 02:08:47;;;;;;;2.88;2.15;;;15.10;99.90;;;;;;4996373;28;20033;-62
2022/06/01 02:14:09;;;;;;;4.90;2.13;;;15.00;99.90;;;;;;5012912;28;20036;-61
2022/06/01 02:16:43;;;;;;;5.40;2.13;;;15.00;99.90;;;;;;5013072;28;20026;-62
2022/06/01 02:19:15;;;;;;;2.40;1.88;;;14.90;99.90;;;;;;5012750;28;20519;-61
2022/06/01 02:21:41;;;;;;;7.63;2.40;;;14.90;99.90;;;;;;5012320;28;20075;-62
2022/06/01 02:24:07;;;;;;;3.30;2.30;;;14.90;99.90;;;;;;5013109;28;20034;-58
2022/06/01 02:26:34;;;;;;;6.90;3.03;;;14.90;99.90;;;;;;5012016;28;20496;-59
2022/06/01 02:29:09;;;;;;;3.70;2.40;;;14.90;99.90;;;;;;5012159;28;20082;-60
2022/06/01 02:31:36;;;;;;;3.83;2.33;;;14.90;99.90;;;;;;5075081;28;20032;-59
2022/06/01 02:34:03;;;;;;;2.80;2.20;;;14.90;99.90;;;;;;5093745;28;20106;-59
2022/06/01 02:36:30;;;;;;;4.57;2.15;;;14.90;99.90;;;;;;5093886;28;20367;-61
2022/06/01 02:38:58;;;;;;;3.67;2.72;;;14.80;99.90;;;;;;5093586;28;20027;-61
2022/06/01 02:44:08;;;;;;;5.00;2.13;;;14.80;99.90;;;;;;5093509;28;20449;-62
2022/06/01 02:46:34;;;;;;;3.00;1.65;;;14.80;99.90;;;;;;5093825;28;20050;-61
2022/06/01 02:49:01;;;;;;;3.42;2.00;;;14.80;99.90;;;;;;5093789;28;20032;-58
2022/06/01 02:51:27;;;;;;;2.70;2.13;;;14.70;99.90;;;;;;5093654;28;20424;-61
2022/06/01 02:53:53;;;;;;;4.63;2.35;;;14.70;99.90;;;;;;5093800;28;20036;-59
2022/06/01 02:56:19;;;;;;;3.22;2.25;;;14.70;99.90;;;;;;5093499;28;20032;-59
2022/06/01 02:58:45;;;;;;;2.67;2.25;;;14.70;99.90;;;;;;5093360;28;20023;-58
2022/06/01 03:01:11;;;;;;;4.05;2.20;;;14.70;99.90;;;;;;5093702;28;20391;-59
2022/06/01 03:03:37;;;;;;;;;;;14.60;99.90;;;;;;5094239;28;20444;-61
2022/06/01 03:06:03;;;;;;;4.18;2.20;;;14.60;99.90;;;;;;5074992;28;20053;-61
2022/06/01 03:08:29;;;;;;;4.57;2.88;;;14.60;99.90;;;;;;5093470;28;20474;-60
2022/06/01 03:10:54;;;;;;;3.38;2.47;;;14.50;99.90;;;;;;5093430;28;20109;-61
2022/06/01 03:13:22;;;;;;;3.10;2.30;;;14.40;99.90;;;;;;5093268;28;20085;-60
2022/06/01 03:15:49;;;;;;;3.10;1.90;;;14.40;99.90;;;;;;5093687;28;20144;-61
2022/06/01 03:18:15;;;;;;;5.72;1.98;;;14.40;99.90;;;;;;5093113;28;20166;-58
2022/06/01 03:20:42;;;;;;;4.00;2.10;;;14.40;99.90;;;;;;5093395;28;20044;-60
2022/06/01 03:23:07;;;;;;;;;;;14.40;99.90;;;;;;5094150;28;20107;-60
2022/06/01 03:25:33;;;;;;;6.60;2.97;;;14.30;99.90;;;;;;5093282;28;19943;-60
2022/06/01 03:27:59;;;;;;;4.43;2.20;;;14.30;99.90;;;;;;5093408;28;20097;-60
2022/06/01 03:30:26;;;;;;;3.78;2.10;;;14.30;99.90;;;;;;5093442;28;20028;-60
2022/06/01 03:32:53;;;;;;;4.88;2.13;;;14.30;99.90;;;;;;5093091;28;20411;-61
2022/06/01 03:35:22;;;;;;;3.42;2.20;;;14.20;99.90;;;;;;5092734;28;20024;-60
2022/06/01 03:37:48;;;;;;;4.32;2.47;;;14.20;99.90;;;;;;5093452;28;20102;-61
2022/06/01 03:40:17;;;;;;;2.58;2.10;;;14.20;99.90;;;;;;5093165;28;20034;-62
2022/06/01 03:42:43;;;;;;;4.45;2.42;;;14.20;99.90;;;;;;5093195;28;20055;-62
2022/06/01 03:47:55;;;;;;;4.88;2.60;;;14.40;99.90;;;;;;5093481;28;20069;-61
2022/06/01 03:50:23;;;;;;;2.42;2.03;;;14.40;99.90;;;;;;5093253;28;20017;-62
2022/06/01 03:52:49;;;;;;;6.10;2.05;;;14.40;99.90;;;;;;5093048;28;20039;-62
2022/06/01 03:55:15;;;;;;;2.95;1.90;;;14.40;99.90;;;;;;5092864;28;20024;-62
2022/06/01 03:57:42;;;;;;;3.05;2.30;;;14.40;99.90;;;;;;5095484;28;20386;-62
2022/06/01 04:00:13;;;;;;;4.30;2.20;;;14.50;99.90;;;;;;5078655;28;20467;-61
2022/06/01 04:02:40;;;;;;;3.22;2.20;;;14.50;99.90;;;;;;5097229;28;20028;-61
2022/06/01 04:05:06;;;;;;;6.78;2.40;;;14.50;99.90;;;;;;5096541;28;20023;-61
2022/06/01 04:07:32;;;;;;;3.85;2.35;;;14.40;99.90;;;;;;5096873;28;20020;-60
2022/06/01 04:09:57;;;;;;;7.88;2.55;;;14.40;99.90;;;;;;5096823;28;20047;-60
2022/06/01 04:12:23;;;;;;;3.20;2.20;;;14.60;99.90;;;;;;5096611;28;20024;-62
2022/06/01 04:14:48;;;;;;;5.13;2.50;;;14.50;99.90;;;;;;5096609;28;20278;-62
2022/06/01 04:17:14;;;;;;;3.40;2.30;;;14.70;99.90;;;;;;5097121;28;20031;-60
2022/06/01 04:19:40;;;;;;;2.72;2.22;;;14.70;99.90;;;;;;5097040;28;20031;-59
2022/06/01 04:22:08;;;;;;;4.38;2.17;;;14.50;99.90;;;;;;5096584;28;20027;-60
2022/06/01 04:24:34;;;;;;;4.30;2.50;;;14.40;99.90;;;;;;5078226;28;20022;-62
2022/06/01 04:27:00;;;;;;;;;;;14.50;99.90;;;;;;5096756;28;20081;-62
2022/06/01 04:29:25;;;;;;;5.75;2.30;;;14.60;99.90;;;;;;5096188;28;20324;-60
2022/06/01 04:32:03;;;;;;;4.33;2.27;;;14.50;99.90;;;;;;5096198;28;20557;-60
2022/06/01 04:34:29;;;;;;;6.47;2.72;;;14.50;99.90;;;;;;5078000;28;20270;-61
2022/06/01 04:36:54;;;;;;;5.03;2.50;;;14.40;99.90;;;;;;5096595;28;20020;-58
2022/06/01 04:39:21;;;;;;;6.35;2.50;;;14.50;99.90;;;;;;5096478;28;20502;-58
2022/06/01 04:41:46;;;;;;;5.05;2.30;;;14.40;99.90;;;;;;5096000;28;20024;-61
2022/06/01 04:44:12;;;;;;;4.40;2.67;;;14.40;99.90;;;;;;5095908;28;20016;-60
2022/06/01 04:46:37;;;;;;;3.70;2.53;;;14.40;99.90;;;;;;5095856;28;20047;-61
2022/06/01 04:49:03;;;;;;;6.03;2.60;;;14.40;99.90;;;;;;5095934;28;20055;-60
2022/06/01 04:51:29;;;;;;;3.47;2.50;;;14.30;99.90;;;;;;5077657;28;20413;-61
2022/06/01 04:53:55;;;;;;;4.78;2.80;;;14.30;99.90;;;;;;5095623;28;20028;-62
2022/06/01 04:56:20;;;;;;;5.33;2.40;;;14.40;99.90;;;;;;5095739;28;20557;-61
2022/06/01 04:58:46;;;;;;;3.85;2.38;;;14.40;99.90;;;;;;5095686;28;20038;-61
2022/06/01 05:01:12;;;;;;;3.17;2.30;;;14.40;99.90;;;;;;5095726;28;20035;-60
2022/06/01 05:03:37;;;;;;;4.83;2.70;;;14.40;99.90;;;;;;5095927;28;20254;-61
2022/06/01 05:06:03;;;;;;;3.53;2.23;;;14.50;99.90;;;;;;5096032;28;20534;-62
2022/06/01 05:08:28;;;;;;;4.82;2.63;;;14.50;99.90;;;;;;5095496;28;20390;-62
2022/06/01 05:10:54;;;;;;;5.28;3.03;;;14.60;99.90;;;;;;5095703;28;20398;-62
2022/06/01 05:13:20;;;;;;;11.10;2.93;;;14.60;99.90;;;;;;5095471;28;20039;-62
2022/06/01 05:15:49;;;;;;;4.93;2.60;;;14.70;99.90;;;;;;5095465;28;20359;-61
2022/06/01 05:18:15;;;;;;;4.03;2.40;;;14.80;99.90;;;;;;5095847;28;20089;-62
2022/06/01 05:20:41;;;;;;;;;;;14.80;99.90;;;;;;5096221;28;20016;-63
2022/06/01 05:23:07;;;;;;;4.13;2.42;;;14.90;99.90;;;;;;5095364;28;19992;-63
2022/06/01 05:25:34;;;;;;;4.15;2.30;;;15.00;99.90;;;;;;5095181;28;20047;-66
2022/06/01 05:27:59;;;;;;;6.40;2.78;;;15.00;99.90;;;;;;5095234;28;20497;-65
2022/06/01 05:30:25;;;;;;;5.05;2.65;;;15.00;99.90;;;;;;5095136;28;20056;-63
2022/06/01 05:32:51;;;;;;;5.00;2.95;;;15.10;99.90;;;;;;5094983;28;20028;-63
2022/06/01 05:35:16;;;;;;;4.38;2.80;;;15.20;99.90;;;;;;5095186;28;20019;-66
2022/06/01 05:37:42;;;;;;;7.40;2.60;;;15.30;99.90;;;;;;5095135;28;20465;-64
2022/06/01 05:40:08;;;;;;;4.53;2.83;;;15.40;99.90;;;;;;5095542;28;20024;-66
2022/06/01 05:42:34;;;;;;;5.38;2.40;;;15.40;99.90;;;;;;5094970;28;20269;-64
2022/06/01 05:45:00;;;;;;;6.03;2.72;;;15.40;99.90;;;;;;5076759;28;20024;-63
2022/06/01 05:47:25;;;;;;;5.63;2.63;;;15.50;99.90;;;;;;5095102;28;20020;-68
2022/06/01 05:49:51;;;;;;;7.72;3.10;;;15.60;99.90;;;;;;5094777;28;20031;-64
2022/06/01 05:52:18;;;;;;;4.82;3.08;;;15.50;99.90;;;;;;5094986;28;20044;-64
2022/06/01 05:54:45;;;;;;;9.27;2.95;;;15.60;99.90;;;;;;5094562;28;20032;-64
2022/06/01 05:57:11;;;;;;;6.90;3.22;;;15.50;99.90;;;;;;5094647;28;20038;-64
2022/06/01 05:59:36;;;;;;;8.68;3.88;;;15.60;99.90;;;;;;5094370;28;20029;-64
2022/06/01 06:02:02;;;;;;;4.45;2.53;;;15.70;99.90;;;;;;5094960;28;20107;-63
2022/06/01 06:04:27;;;;;;;6.80;3.17;;;15.70;99.90;;;;;;5094265;28;20024;-63
2022/06/01 06:06:53;;;;;;;5.57;2.88;;;15.70;99.90;;;;;;5094723;28;20020;-63
2022/06/01 06:09:24;;;;;;;14.75;3.08;;;15.80;99.90;;;;;;5094286;28;20036;-63
2022/06/01 06:11:51;;;;;;;7.68;3.08;;;15.90;99.90;;;;;;5093735;28;20052;-65
2022/06/01 06:14:17;;;;;;;4.82;3.25;;;15.90;99.90;;;;;;5094277;28;20398;-64
2022/06/01 06:16:45;;;;;;;7.47;2.83;;;15.90;99.90;;;;;;5094673;28;20040;-65
2022/06/01 06:19:12;;;;;;;4.00;2.60;;;15.90;99.90;;;;;;5093731;28;20036;-63
2022/06/01 06:21:38;;;;;;;6.10;3.33;;;16.00;99.90;;;;;;5094896;28;20016;-65
2022/06/01 06:24:10;;;;;;;6.75;3.17;;;16.10;99.90;;;;;;5094976;28;20027;-63
2022/06/01 06:26:37;;;;;;;5.55;2.70;;;16.10;99.90;;;;;;5095331;28;20032;-63
2022/06/01 06:29:07;;;;;;;5.10;2.53;;;16.20;99.90;;;;;;5094895;28;20471;-64
2022/06/01 06:31:32;;;;;;;5.93;2.67;;;16.30;99.90;;;;;;5094469;28;20044;-64
2022/06/01 06:33:58;;;;;;;3.88;2.78;;;16.30;99.90;;;;;;5094151;28;20051;-63
2022/06/01 06:36:25;;;;;;;4.22;2.65;;;16.40;99.90;;;;;;5093848;28;20036;-63
2022/06/01 06:38:50;;;;;;;;;;;16.50;99.90;;;;;;5094285;28;20073;-65
2022/06/01 06:41:16;;;;;;;7.60;3.17;;;16.50;99.90;;;;;;5094299;28;19912;-61
2022/06/01 06:43:42;;;;;;;6.40;2.88;;;16.70;99.90;;;;;;5093973;28;20024;-63
2022/06/01 06:46:11;;;;;;;5.30;2.72;;;16.70;99.90;;;;;;5093697;28;20432;-63
2022/06/01 06:48:37;;;;;;;3.50;2.17;;;16.80;99.90;;;;;;5093967;28;20458;-62
2022/06/01 06:51:03;;;;;;;4.90;2.10;;;16.80;99.90;;;;;;5093745;28;20110;-63
2022/06/01 06:53:29;;;;;;;;;;;16.90;99.90;;;;;;5094069;28;20103;-64
2022/06/01 06:55:55;;;;;;;17.30;3.83;;;17.00;99.90;;;;;;5093478;28;19938;-65
2022/06/01 06:58:22;;;;;;;7.15;2.70;;;17.10;99.90;;;;;;5093535;28;20024;-63
2022/06/01 07:00:48;;;;;;;9.20;2.90;;;17.20;99.90;;;;;;5093331;28;20024;-65
2022/06/01 07:03:14;;;;;;;5.57;2.42;;;17.20;99.90;;;;;;5093574;28;20020;-64
2022/06/01 07:08:25;;;;;;;7.07;2.53;;;17.30;99.90;;;;;;5093704;28;20058;-64
2022/06/01 07:10:52;;;;;;;8.10;2.92;;;17.30;99.90;;;;;;5093404;28;20024;-63
2022/06/01 07:13:17;;;;;;;4.57;2.15;;;17.40;99.90;;;;;;5093192;28;20064;-63
2022/06/01 07:15:43;;;;;;;4.18;2.20;;;17.50;99.90;;;;;;5093050;28;20040;-64
2022/06/01 07:18:09;;;;;;;10.88;2.33;;;17.60;99.90;;;;;;5093421;28;20470;-63
2022/06/01 07:20:35;;;;;;;3.92;2.00;;;17.80;99.90;;;;;;5093960;28;20055;-63
2022/06/01 07:23:00;;;;;;;6.25;2.30;;;17.90;99.50;;;;;;5093622;28;20034;-63
2022/06/01 07:25:27;;;;;;;8.57;2.03;;;18.00;98.90;;;;;;5093411;28;20026;-64
2022/06/01 07:27:54;;;;;;;5.70;1.95;;;18.00;97.70;;;;;;5093512;28;20522;-63
2022/06/01 07:30:20;;;;;;;2.75;1.90;;;18.10;97.30;;;;;;5094196;28;20016;-63
2022/06/01 07:32:48;;;;;;;4.93;2.65;;;18.20;96.80;;;;;;5093482;28;20031;-64
2022/06/01 07:35:15;;;;;;;4.75;1.77;;;18.30;96.00;;;;;;5092921;28;20024;-63
2022/06/01 07:43:11;;;;;;;5.25;1.95;;;18.60;95.40;;;;;;5093281;28;20027;-64
2022/06/01 07:45:41;;;;;;;4.32;1.55;;;18.80;94.40;;;;;;5093115;28;20104;-63
2022/06/01 07:48:08;;;;;;;4.10;1.48;;;18.90;93.60;;;;;;5092976;28;20028;-64
2022/06/01 07:50:34;;;;;;;4.78;2.03;;;19.10;91.50;;;;;;5092787;28;20059;-64
2022/06/01 07:53:01;;;;;;;3.72;1.75;;;19.30;91.10;;;;;;5092813;28;20032;-63
2022/06/01 07:55:27;;;;;;;3.80;1.75;;;19.40;90.90;;;;;;5092838;28;20545;-64
2022/06/01 07:57:52;;;;;;;3.83;1.67;;;19.40;90.30;;;;;;5092577;28;20063;-64
2022/06/01 08:00:19;;;;;;;3.75;1.90;;;19.60;90.00;;;;;;5092659;28;20108;-64
2022/06/01 08:02:45;;;;;;;7.18;1.95;;;19.80;89.30;;;;;;5092600;28;20024;-64
2022/06/01 08:05:15;;;;;;;5.03;2.30;;;19.90;88.30;;;;;;5092734;28;20044;-63
2022/06/01 08:07:43;;;;;;;7.32;1.63;;;20.40;87.60;;;;;;5092600;28;20099;-63
2022/06/01 08:10:10;;;;;;;5.00;1.42;;;22.00;83.90;;;;;;5092585;28;20024;-63
2022/06/01 08:15:20;;;;;;;2.35;1.40;;;26.50;72.20;;;;;;5092622;28;20401;-64
2022/06/01 08:17:46;;;;;;;2.72;1.23;;;28.30;67.20;;;;;;5092699;28;20036;-65
2022/06/01 08:20:12;;;;;;;5.72;1.88;;;29.60;62.90;;;;;;5092357;28;20095;-66
2022/06/01 08:22:39;;;;;;;8.90;1.55;;;30.60;60.80;;;;;;5092290;28;20082;-65
2022/06/01 08:25:07;;;;;;;5.00;1.52;;;31.30;59.00;;;;;;5092625;28;20070;-65
2022/06/01 08:27:32;;;;;;;7.28;2.00;;;32.10;56.90;;;;;;5092447;28;20028;-64
2022/06/01 08:29:58;;;;;;;3.05;1.58;;;32.40;54.80;;;;;;5092422;28;20036;-65
2022/06/01 08:32:23;;;;;;;4.15;1.65;;;32.30;53.90;;;;;;5092325;28;20103;-65
2022/06/01 08:34:49;;;;;;;5.88;1.30;;;32.50;52.90;;;;;;5092476;28;20176;-64
2022/06/01 08:37:15;;;;;;;2.10;1.30;;;32.90;51.80;;;;;;5092334;28;20095;-64
2022/06/01 08:39:41;;;;;;;3.40;1.50;;;33.40;51.10;;;;;;5092036;28;20067;-65
2022/06/01 08:42:12;;;;;;;7.78;3.55;;;34.00;49.90;;;;;;5074029;28;20032;-64
2022/06/01 08:44:40;;;;;;;3.78;1.50;;;34.20;48.60;;;;;;5096306;28;20427;-64
2022/06/01 08:47:27;;;;;;;2.47;1.20;;;33.70;48.00;;;;;;5096015;28;20149;-64
2022/06/01 08:49:56;;;;;;;2.42;1.20;;;34.00;47.90;;;;;;5096209;28;20041;-65
2022/06/01 08:52:24;;;;;;;3.92;1.52;;;33.40;47.90;;;;;;5095734;28;20098;-65
2022/06/01 08:54:50;;;;;;;4.47;1.42;;;33.40;47.90;;;;;;5077712;28;20020;-65
2022/06/01 08:57:23;;;;;;;21.83;2.28;;;33.60;47.70;;;;;;5095753;28;20039;-64
2022/06/01 09:00:17;;;;;;;5.15;1.35;;;34.10;47.20;;;;;;5096257;28;20099;-63
2022/06/01 09:03:10;;;;;;;22.30;3.00;;;33.40;47.40;;;;;;5095926;28;20089;-65
2022/06/01 09:05:47;;;;;;;14.98;1.95;;;34.00;47.70;;;;;;5095595;28;20078;-65
2022/06/01 09:08:34;;;;;;;457.45;44.03;;;34.20;47.30;;;;;;5077268;28;20026;-65
2022/06/01 09:11:12;;;;;;;2.83;1.27;;;35.00;46.80;;;;;;5076979;28;20043;-64
2022/06/01 09:13:58;;;;;;;3.20;1.13;;;35.70;45.90;;;;;;5095756;28;20042;-63
2022/06/01 09:16:32;;;;;;;2.35;1.30;;;35.50;45.40;;;;;;5095605;28;20161;-62
2022/06/01 09:18:58;;;;;;;5.90;1.55;;;34.90;45.90;;;;;;5095261;28;20390;-61
2022/06/01 09:24:28;;;;;;;6.30;1.48;;;35.10;45.40;;;;;;5095409;28;20038;-61
2022/06/01 09:27:07;;;;;;;4.43;1.40;;;34.70;45.50;;;;;;5095081;28;20027;-62
2022/06/01 09:29:45;;;;;;;2.20;1.23;;;34.50;45.50;;;;;;5095447;28;20485;-62
2022/06/01 09:32:34;;;;;;;1.52;0.90;;;34.50;45.80;;;;;;5095388;28;20115;-62
2022/06/01 09:35:03;;;;;;;3.28;1.17;;;33.80;45.90;;;;;;5095068;28;20142;-62
2022/06/01 09:37:41;;;;;;;5.18;1.40;;;33.20;46.50;;;;;;5095126;28;20016;-60
2022/06/01 09:40:28;;;;;;;2.35;1.17;;;33.70;46.20;;;;;;5094639;28;20020;-62
2022/06/01 09:42:55;;;;;;;5.25;1.45;;;34.20;45.70;;;;;;5076310;28;20020;-62
2022/06/01 09:45:44;;;;;;;1.83;1.10;;;34.20;45.80;;;;;;5094571;28;20024;-62
2022/06/01 09:48:15;;;;;;;1.88;1.25;;;34.60;45.60;;;;;;5094995;28;20024;-60
2022/06/01 09:50:44;;;;;;;3.20;1.20;;;33.60;46.10;;;;;;5094847;28;20474;-61
2022/06/01 09:53:17;;;;;;;4.45;1.60;;;33.70;46.20;;;;;;5094788;28;20120;-60
2022/06/01 09:56:03;;;;;;;3.00;1.20;;;34.40;45.90;;;;;;5093545;28;20098;-62
2022/06/01 10:06:55;;;;;;;2.10;1.17;;;34.70;45.40;;;;;;5094691;28;20065;-62
2022/06/01 10:09:30;;;;;;;6.63;1.50;;;34.40;45.40;;;;;;5094494;28;20134;-62
2022/06/01 10:11:57;;;;;;;2.87;1.40;;;34.70;45.30;;;;;;5094666;28;20387;-62
2022/06/01 10:14:30;;;;;;;2.78;1.40;;;34.90;45.00;;;;;;5093880;28;20024;-62
2022/06/01 10:17:00;;;;;;;2.97;1.40;;;34.40;45.40;;;;;;5094382;28;20359;-62
2022/06/01 10:19:32;;;;;;;4.18;1.20;;;34.70;45.40;;;;;;5094068;28;20055;-62
2022/06/01 10:22:34;;;;;;;2.25;1.00;;;35.10;45.30;;;;;;5093978;28;20095;-63
2022/06/01 10:25:07;;;;;;;2.80;1.10;;;34.70;44.90;;;;;;5094303;28;20016;-62
2022/06/01 10:27:45;;;;;;;1.70;1.20;;;33.30;46.00;;;;;;5094113;28;20016;-63
2022/06/01 10:30:13;;;;;;;2.13;1.30;;;33.10;46.10;;;;;;5094332;28;20130;-63
2022/06/01 10:32:56;;;;;;;2.25;1.38;;;33.60;46.00;;;;;;5075833;28;20386;-62
2022/06/01 10:35:31;;;;;;;2.38;1.10;;;34.00;45.90;;;;;;5093747;28;20077;-60
2022/06/01 10:38:06;;;;;;;2.55;1.45;;;33.30;45.90;;;;;;5075457;28;20070;-62
2022/06/01 10:40:50;;;;;;;1.50;1.20;;;33.60;46.10;;;;;;5093634;28;20043;-62
2022/06/01 10:43:38;;;;;;;1.98;1.10;;;33.60;45.90;;;;;;5093630;28;20016;-62
2022/06/01 10:46:28;;;;;;;6.35;1.35;;;33.90;45.90;;;;;;5093499;28;20016;-62
2022/06/01 10:49:18;;;;;;;5.35;1.13;;;33.70;45.70;;;;;;5093793;28;20466;-62
2022/06/01 10:51:51;;;;;;;3.25;1.30;;;32.80;46.50;;;;;;5093517;28;20111;-60
2022/06/01 10:54:42;;;;;;;3.17;1.08;;;32.60;46.60;;;;;;5093309;28;20020;-62
2022/06/01 10:57:13;;;;;;;2.72;1.05;;;32.30;46.80;;;;;;5093432;28;20024;-61
2022/06/01 10:59:39;;;;;;;2.92;1.20;;;31.70;46.10;;;;;;5093674;28;20031;-62
2022/06/01 11:02:33;;;;;;;3.47;1.40;;;30.50;47.70;;;;;;5093679;28;20020;-61
2022/06/01 11:05:13;;;;;;;1.75;1.27;;;29.40;49.00;;;;;;5093370;28;20016;-63
2022/06/01 11:08:01;;;;;;;5.53;1.27;;;28.60;49.90;;;;;;5093083;28;20074;-61
2022/06/01 11:10:38;;;;;;;5.13;1.10;;;27.90;51.10;;;;;;5074960;28;20059;-62
2022/06/01 11:13:29;;;;;;;2.08;1.20;;;27.10;52.00;;;;;;5093050;28;20031;-62
2022/06/01 11:16:13;;;;;;;2.45;1.20;;;26.50;52.90;;;;;;5093073;28;20172;-63
2022/06/01 11:18:50;;;;;;;5.00;1.33;;;25.90;54.60;;;;;;5093291;28;20023;-62
2022/06/01 11:21:35;;;;;;;4.22;1.30;;;25.60;54.30;;;;;;5093053;28;20023;-62
2022/06/01 11:24:45;;;;;;;4.18;1.15;;;25.40;54.00;;;;;;5074745;28;20490;-63
2022/06/01 11:27:19;;;;;;;5.32;1.20;;;25.30;53.60;;;;;;5072458;28;20444;-62
2022/06/01 11:30:16;;;;;;;4.22;1.45;;;25.20;53.10;;;;;;5092952;28;20024;-58
2022/06/01 11:32:45;;;;;;;3.53;1.20;;;25.10;53.00;;;;;;5093056;28;20102;-60
2022/06/01 11:35:19;;;;;;;3.75;1.27;;;25.10;53.60;;;;;;5093035;28;20101;-60
2022/06/01 11:37:51;;;;;;;5.00;1.15;;;25.30;53.60;;;;;;5092995;28;20170;-60
2022/06/01 11:40:48;;;;;;;3.80;1.10;;;25.40;53.20;;;;;;5092743;28;20050;-59
2022/06/01 11:43:28;;;;;;;1.90;0.90;;;25.20;53.20;;;;;;5093244;28;20020;-59
2022/06/01 11:46:15;;;;;;;2.00;0.90;;;24.90;53.10;;;;;;5093337;28;20338;-61
2022/06/01 11:48:48;;;;;;;2.75;1.10;;;24.80;53.20;;;;;;5074881;28;20060;-60
2022/06/01 11:51:38;;;;;;;3.20;1.30;;;24.70;53.10;;;;;;5076016;28;20077;-60
2022/06/01 11:54:17;;;;;;;3.97;1.20;;;24.70;53.40;;;;;;5093631;28;20024;-63
2022/06/01 11:56:59;;;;;;;3.58;1.50;;;24.70;52.90;;;;;;5092908;28;20133;-60
2022/06/01 11:59:28;;;;;;;2.50;1.10;;;24.70;52.30;;;;;;5093099;28;20020;-61
2022/06/01 12:02:40;;;;;;;1.90;1.15;;;24.80;51.50;;;;;;5093390;28;20106;-62
2022/06/01 12:05:31;;;;;;;6.15;1.10;;;24.80;51.40;;;;;;5093195;28;20063;-63
2022/06/01 12:08:21;;;;;;;6.95;1.10;;;24.90;51.40;;;;;;5082664;28;20615;-60
2022/06/01 12:11:00;;;;;;;3.30;0.90;;;24.80;51.20;;;;;;5093514;28;20032;-62
2022/06/01 12:13:30;;;;;;;5.03;0.90;;;24.80;51.00;;;;;;5093247;28;20024;-61
2022/06/01 12:16:07;;;;;;;1.80;0.90;;;24.90;51.00;;;;;;5093650;28;20032;-63
2022/06/01 12:18:33;;;;;;;;;;;25.00;50.90;;;;;;5096401;28;20085;-62
2022/06/01 12:21:26;;;;;;;3.08;1.20;;;24.90;50.90;;;;;;5096551;28;19954;-61
2022/06/01 12:30:10;;;;;;;2.10;1.00;;;24.90;50.50;;;;;;5096661;28;20093;-65
2022/06/01 12:33:00;;;;;;;5.88;1.17;;;24.90;50.50;;;;;;5078150;28;20024;-63
2022/06/01 12:35:32;;;;;;;4.13;0.75;;;25.00;51.10;;;;;;5096484;28;20024;-62
2022/06/01 12:38:12;;;;;;;4.95;0.90;;;25.00;51.00;;;;;;5096136;28;20390;-61
2022/06/01 12:40:39;;;;;;;3.95;0.95;;;25.00;51.40;;;;;;5095919;28;20099;-59
2022/06/01 12:43:13;;;;;;;4.43;0.98;;;25.00;51.40;;;;;;5096033;28;20024;-60
2022/06/01 12:45:42;;;;;;;2.00;1.10;;;25.00;51.50;;;;;;5095907;28;20016;-62
2022/06/01 12:48:14;;;;;;;2.05;1.13;;;25.00;50.10;;;;;;5096197;28;20051;-62
2022/06/01 12:50:47;;;;;;;4.07;0.85;;;25.00;51.00;;;;;;5095867;28;20035;-64
2022/06/01 12:53:25;;;;;;;3.33;0.82;;;25.00;51.20;;;;;;5096077;28;20490;-60
2022/06/01 12:56:27;;;;;;;5.05;1.00;;;24.90;51.60;;;;;;5096719;28;20458;-60
2022/06/01 12:58:54;;;;;;;3.03;1.15;;;24.90;51.30;;;;;;5013755;28;20030;-60
2022/06/01 13:01:21;;;;;;;5.22;1.35;;;24.90;51.30;;;;;;5013663;28;20141;-61
2022/06/01 13:03:54;;;;;;;2.97;1.20;;;24.90;50.90;;;;;;5014664;28;20022;-63
2022/06/01 13:06:22;;;;;;;8.30;1.33;;;25.00;51.30;;;;;;5013910;28;20034;-61
2022/06/01 13:09:05;;;;;;;3.72;0.90;;;24.90;51.30;;;;;;5014144;28;20124;-61
2022/06/01 13:11:33;;;;;;;2.40;1.17;;;24.90;51.20;;;;;;5013892;28;20124;-60
2022/06/01 13:14:01;;;;;;;7.90;1.30;;;24.90;51.10;;;;;;5013557;28;20530;-59
2022/06/01 13:16:45;;;;;;;3.83;1.17;;;25.00;51.00;;;;;;5013523;28;20033;-60
2022/06/01 13:19:24;;;;;;;4.25;0.98;;;25.00;51.40;;;;;;5013453;28;20105;-62
2022/06/01 13:22:14;;;;;;;7.13;0.90;;;24.90;51.50;;;;;;5013799;28;20508;-61
2022/06/01 13:24:53;;;;;;;2.80;0.85;;;24.90;51.80;;;;;;5014371;28;20022;-62
2022/06/01 13:27:20;;;;;;;2.72;0.93;;;24.90;51.60;;;;;;5014190;28;20045;-62
2022/06/01 13:29:48;;;;;;;1.10;0.90;;;24.90;51.80;;;;;;5013800;28;20026;-60
2022/06/01 13:32:17;;;;;;;4.05;1.10;;;25.00;52.10;;;;;;5013355;28;20120;-61
2022/06/01 13:34:49;;;;;;;3.30;1.30;;;25.10;51.60;;;;;;5066776;28;20467;-61
2022/06/01 13:37:26;;;;;;;5.13;1.00;;;25.10;51.70;;;;;;5095371;28;20382;-62
2022/06/01 13:39:59;;;;;;;3.35;0.80;;;25.00;51.80;;;;;;5095593;28;20020;-61
2022/06/01 13:42:50;;;;;;;6.10;1.02;;;24.90;51.60;;;;;;5077112;28;20016;-61
2022/06/01 13:45:19;;;;;;;3.97;1.20;;;24.90;51.50;;;;;;5090877;28;20032;-60
2022/06/01 13:47:50;;;;;;;2.67;1.00;;;25.10;51.70;;;;;;5095058;28;20023;-61